KENV/ENV METAR and TAF weather

Enter ICAO airport designator
Station Type Date Time Source
KENV METAR 2021/10/20 05:56 UTC NOAA

KENV 200556Z AUTO 04006KT CLR 07/03 A3015 RMK AO2 SLP207 T00720028 10144 20067 51006 PWINO $


Station Type Date Time Source
KENV Decoded METAR 2021/10/20 05:56 UTC NOAA

Wendover / Air Force Auxillary Field, UT, United States (KENV) 40-44N 114-02W 1292M
Oct 20, 2021 - 01:56 AM EDT / 2021.10.20 0556 UTC
Wind: from the NE (040 degrees) at 7 MPH (6 KT):0
Sky conditions: clear
Temperature: 45.0 F (7.2 C)
Dew Point: 37.0 F (2.8 C)
Relative Humidity: 73%
Pressure (altimeter): 30.15 in. Hg (1020 hPa)
Pressure tendency: 0.02 inches (0.6 hPa) higher than three hours ago
ob: KENV 200556Z AUTO 04006KT CLR 07/03 A3015 RMK AO2 SLP207 T00720028 10144 20067 51006 PWINO
cycle: 6

Station Type Date Time Source
KENV TAF 2021/10/20 06:22 UTC NOAA

TAF KENV 200520Z 2006/2106 VRB05KT P6SM FEW100 SCT250

Example: see airport list